Time;durP1;ratioP1;P1;durP2;ratioP2;P2;SDS_P1;SDS_P2;PMS_P1;PMS_P2;Temp;Humidity;BMP_temperature;BMP_pressure;BME280_temperature;BME280_humidity;BME280_pressure;Samples;Min_cycle;Max_cycle;Signal;HPM_P1;HPM_P2
2021/06/04 00:02:46;;;;;;;18.40;10.77;;;;;;;12.43;51.28;101057.98;154033;1093;103145;-75
2021/06/04 00:05:53;;;;;;;15.67;9.80;;;;;;;12.37;51.87;101070.14;153951;1101;103245;-75
2021/06/04 00:08:57;;;;;;;15.05;10.10;;;;;;;12.33;51.96;101057.17;153961;1101;103525;-74
2021/06/04 00:12:03;;;;;;;16.23;10.07;;;;;;;12.31;51.58;101059.99;153964;1093;103197;-74
2021/06/04 00:15:11;;;;;;;16.50;11.10;;;;;;;12.25;51.74;101065.93;154009;1101;103362;-74
2021/06/04 00:18:16;;;;;;;18.10;11.30;;;;;;;12.22;52.10;101065.37;154034;1101;103140;-77
2021/06/04 00:21:23;;;;;;;14.95;10.38;;;;;;;12.17;51.80;101061.30;153998;1101;103196;-75
2021/06/04 00:24:27;;;;;;;14.87;10.10;;;;;;;12.14;52.61;101058.06;153938;1101;103119;-73
2021/06/04 00:27:31;;;;;;;14.93;9.80;;;;;;;12.10;52.18;101054.83;153999;1101;103104;-73
2021/06/04 00:30:35;;;;;;;13.87;9.63;;;;;;;12.07;52.50;101064.99;153972;1093;103362;-74
2021/06/04 00:33:39;;;;;;;14.58;9.48;;;;;;;12.02;52.58;101068.08;153994;1093;103159;-74
2021/06/04 00:36:43;;;;;;;15.43;8.65;;;;;;;11.96;53.00;101065.98;154032;1101;103100;-74
2021/06/04 00:39:48;;;;;;;15.00;10.00;;;;;;;11.91;52.96;101063.74;153971;1101;103195;-75
2021/06/04 00:42:52;;;;;;;13.47;9.20;;;;;;;11.84;52.36;101062.58;153971;1101;103104;-75
2021/06/04 00:46:00;;;;;;;13.60;9.28;;;;;;;11.78;52.74;101065.83;154043;1094;103275;-75
2021/06/04 00:49:04;;;;;;;14.25;9.20;;;;;;;11.69;52.69;101067.50;153990;1101;103128;-75
2021/06/04 00:52:12;;;;;;;13.05;9.35;;;;;;;11.64;53.00;101060.88;153958;1101;103133;-76
2021/06/04 00:55:21;;;;;;;14.40;9.23;;;;;;;11.61;52.54;101067.36;153986;1093;103139;-75
2021/06/04 00:58:30;;;;;;;14.53;9.60;;;;;;;11.57;52.30;101072.14;154002;1093;103560;-75
2021/06/04 01:01:37;;;;;;;14.00;9.00;;;;;;;11.52;52.88;101068.20;153967;1093;103269;-74
2021/06/04 01:04:41;;;;;;;16.03;9.93;;;;;;;11.43;52.85;101069.02;154052;1101;103289;-74
2021/06/04 01:07:57;;;;;;;18.78;10.23;;;;;;;11.40;53.05;101059.46;153968;1094;103190;-73
2021/06/04 01:11:14;;;;;;;14.40;9.30;;;;;;;11.37;52.76;101057.92;153983;1101;103097;-73
2021/06/04 01:14:27;;;;;;;14.50;9.35;;;;;;;11.33;53.02;101064.50;154024;1093;103118;-73
2021/06/04 01:17:41;;;;;;;12.80;8.35;;;;;;;11.31;52.96;101061.13;154024;1093;103154;-73
2021/06/04 01:20:49;;;;;;;12.55;8.53;;;;;;;11.30;53.27;101059.45;154060;1093;103122;-74
2021/06/04 01:24:08;;;;;;;12.70;8.13;;;;;;;11.27;53.93;101054.38;153930;1093;103589;-73
2021/06/04 01:27:17;;;;;;;11.45;7.90;;;;;;;11.25;53.41;101056.34;153988;1093;103132;-73
2021/06/04 01:30:30;;;;;;;11.95;8.15;;;;;;;11.19;53.04;101046.21;154084;1101;103487;-75
2021/06/04 01:33:44;;;;;;;14.23;8.88;;;;;;;11.14;53.72;101054.65;153970;1093;103250;-75
2021/06/04 01:36:52;;;;;;;11.83;7.85;;;;;;;11.12;53.07;101045.90;154086;1093;103179;-75
2021/06/04 01:40:00;;;;;;;11.10;7.80;;;;;;;11.10;53.59;101055.88;153982;1101;103132;-76
2021/06/04 01:43:12;;;;;;;11.30;8.25;;;;;;;11.06;53.71;101057.14;154012;1101;103094;-75
2021/06/04 01:46:21;;;;;;;14.00;8.40;;;;;;;11.03;53.42;101054.76;154102;1093;103117;-76
2021/06/04 01:49:30;;;;;;;11.37;8.00;;;;;;;11.00;53.59;101047.00;154001;1093;103356;-74
2021/06/04 01:52:39;;;;;;;11.90;7.57;;;;;;;10.96;53.76;101046.43;154048;1093;103168;-75
2021/06/04 01:55:48;;;;;;;10.95;7.40;;;;;;;10.94;53.79;101051.06;153954;1093;103269;-74
2021/06/04 01:58:57;;;;;;;12.75;8.10;;;;;;;10.90;54.05;101043.47;153991;1101;103477;-73
2021/06/04 02:02:03;;;;;;;12.23;8.38;;;;;;;10.87;53.73;101047.23;154023;1093;103138;-73
2021/06/04 02:05:14;;;;;;;9.45;7.43;;;;;;;10.84;53.73;101041.34;153989;1093;103194;-72
2021/06/04 02:08:24;;;;;;;10.95;7.25;;;;;;;10.80;53.90;101048.78;154116;1101;103191;-76
2021/06/04 02:11:32;;;;;;;11.57;7.90;;;;;;;10.75;53.90;101051.84;154012;1093;103161;-75
2021/06/04 02:14:42;;;;;;;13.30;8.18;;;;;;;10.71;53.85;101052.25;154037;1094;103593;-76
2021/06/04 02:17:57;;;;;;;9.80;7.33;;;;;;;10.70;54.09;101058.55;154033;1094;103259;-76
2021/06/04 02:21:14;;;;;;;10.50;7.40;;;;;;;10.69;54.12;101055.05;154043;1094;103295;-76
2021/06/04 02:24:19;;;;;;;;;;;;;;;10.67;54.22;101056.17;154092;1101;103143;-74
2021/06/04 02:27:32;;;;;;;9.43;6.65;;;;;;;10.65;54.28;101058.97;154066;1101;103193;-76
2021/06/04 02:30:41;;;;;;;10.63;7.20;;;;;;;10.63;54.10;101060.09;154072;1101;103128;-76
2021/06/04 02:33:50;;;;;;;11.20;8.17;;;;;;;10.63;54.68;101049.42;154083;1101;103486;-75
2021/06/04 02:36:58;;;;;;;10.53;7.43;;;;;;;10.61;54.32;101047.71;153956;1095;103279;-73
2021/06/04 02:40:09;;;;;;;9.73;7.00;;;;;;;10.60;54.01;101051.38;153937;1096;103100;-75
2021/06/04 02:43:18;;;;;;;11.03;7.23;;;;;;;10.58;54.21;101055.97;153942;1101;103115;-73
2021/06/04 02:46:28;;;;;;;9.10;6.88;;;;;;;10.60;54.43;101054.05;153959;1101;103096;-73
2021/06/04 02:49:35;;;;;;;10.23;7.80;;;;;;;10.60;54.70;101062.05;154000;1093;103104;-72
2021/06/04 02:52:42;;;;;;;9.97;6.90;;;;;;;10.61;54.44;101058.39;153980;1101;103209;-71
2021/06/04 02:56:04;;;;;;;9.77;7.63;;;;;;;10.61;54.63;101058.39;153938;1093;103211;-71
2021/06/04 02:59:13;;;;;;;9.57;7.20;;;;;;;10.62;54.42;101061.89;153946;1097;103196;-71
2021/06/04 03:02:19;;;;;;;9.60;7.40;;;;;;;10.64;54.47;101056.42;153943;1101;103195;-72
2021/06/04 03:05:29;;;;;;;10.53;7.60;;;;;;;10.65;54.70;101063.47;154013;1095;103133;-71
2021/06/04 03:08:35;;;;;;;10.50;7.27;;;;;;;10.61;54.68;101063.72;154010;1093;103208;-71
2021/06/04 03:11:43;;;;;;;10.33;7.67;;;;;;;10.68;55.10;101061.38;154004;1093;103227;-71
2021/06/04 03:14:50;;;;;;;10.57;7.13;;;;;;;10.85;54.70;101059.88;154011;1101;103183;-73
2021/06/04 03:17:56;;;;;;;10.47;7.37;;;;;;;11.07;55.14;101063.34;153996;1101;103243;-75
2021/06/04 03:21:05;;;;;;;11.23;7.77;;;;;;;11.30;54.85;101053.27;154056;1093;103074;-75
2021/06/04 03:24:16;;;;;;;9.08;7.38;;;;;;;11.55;54.86;101058.07;153936;1093;103295;-73
2021/06/04 03:27:22;;;;;;;8.67;7.03;;;;;;;11.78;54.15;101057.80;153968;1093;103116;-73
2021/06/04 03:30:34;;;;;;;10.13;7.25;;;;;;;12.01;54.51;101058.38;154018;1101;103276;-73
2021/06/04 03:33:40;;;;;;;10.23;7.90;;;;;;;12.29;54.09;101050.44;153845;1093;103551;-72
2021/06/04 03:36:48;;;;;;;10.20;7.90;;;;;;;12.56;54.11;101050.48;153995;1101;103183;-75
2021/06/04 03:39:53;;;;;;;9.58;7.63;;;;;;;12.86;54.85;101059.25;153954;1094;103277;-75
2021/06/04 03:42:59;;;;;;;9.40;7.53;;;;;;;13.14;54.23;101052.06;154074;1093;103190;-73
2021/06/04 03:46:04;;;;;;;10.43;7.85;;;;;;;13.47;54.49;101059.61;154003;1093;103154;-75
2021/06/04 03:49:10;;;;;;;9.58;7.58;;;;;;;13.72;54.35;101052.64;153922;1101;103125;-76
2021/06/04 03:52:20;;;;;;;8.83;7.43;;;;;;;13.92;54.36;101056.02;153976;1095;103170;-75
2021/06/04 03:55:26;;;;;;;9.93;8.00;;;;;;;14.17;53.99;101056.20;154027;1093;103145;-76
2021/06/04 03:58:30;;;;;;;10.48;8.08;;;;;;;14.41;54.08;101040.23;154047;1101;103144;-74
2021/06/04 04:01:37;;;;;;;12.63;7.83;;;;;;;14.67;54.03;101050.16;153974;1093;103184;-75
2021/06/04 04:04:42;;;;;;;10.50;8.70;;;;;;;14.95;54.15;101036.50;154056;1101;103122;-75
2021/06/04 04:07:45;;;;;;;8.97;7.27;;;;;;;15.21;53.95;101049.86;154007;1093;103104;-75
2021/06/04 04:10:49;;;;;;;9.30;7.47;;;;;;;15.40;53.91;101054.11;154022;1101;103365;-76
2021/06/04 04:13:53;;;;;;;9.15;7.28;;;;;;;15.58;54.03;101052.11;153960;1101;103239;-74
2021/06/04 04:16:57;;;;;;;16.05;7.65;;;;;;;15.78;53.78;101054.50;153964;1101;103224;-76
2021/06/04 04:20:01;;;;;;;8.30;7.15;;;;;;;16.00;53.78;101055.70;153913;1101;103192;-76
2021/06/04 04:23:08;;;;;;;8.40;6.97;;;;;;;16.18;54.29;101058.20;153994;1093;103130;-76
2021/06/04 04:26:15;;;;;;;9.40;7.20;;;;;;;16.37;54.27;101048.91;153975;1101;103266;-77
2021/06/04 04:29:19;;;;;;;8.00;6.97;;;;;;;16.59;54.44;101055.41;154027;1093;103215;-74
2021/06/04 04:32:23;;;;;;;9.60;6.90;;;;;;;16.81;54.19;101043.89;153980;1101;103193;-75
2021/06/04 04:35:31;;;;;;;10.70;7.37;;;;;;;17.01;53.93;101040.80;153994;1101;103169;-77
2021/06/04 04:38:36;;;;;;;18.40;7.98;;;;;;;17.22;54.57;101043.70;153989;1093;103193;-74
2021/06/04 04:41:40;;;;;;;9.03;6.93;;;;;;;17.44;54.18;101038.55;153986;1101;103195;-75
2021/06/04 04:44:45;;;;;;;9.08;7.28;;;;;;;17.65;54.24;101038.72;154100;1101;103557;-73
2021/06/04 04:47:49;;;;;;;10.23;7.10;;;;;;;17.85;54.09;101040.95;154008;1093;103196;-75
2021/06/04 04:50:53;;;;;;;7.60;6.53;;;;;;;18.07;54.13;101041.09;153900;1101;103197;-72
2021/06/04 04:53:57;;;;;;;9.83;6.65;;;;;;;18.27;54.04;101034.16;153963;1093;103554;-76
2021/06/04 04:57:01;;;;;;;9.90;6.70;;;;;;;18.45;53.90;101039.19;153931;1093;103283;-74
2021/06/04 05:00:08;;;;;;;9.43;6.70;;;;;;;18.62;53.99;101040.68;153966;1093;103120;-75
2021/06/04 05:03:14;;;;;;;6.70;5.90;;;;;;;18.81;53.55;101039.30;153938;1101;103120;-73
2021/06/04 05:06:18;;;;;;;6.60;5.60;;;;;;;19.01;53.69;101036.88;154077;1093;103122;-74
2021/06/04 05:09:22;;;;;;;8.10;6.13;;;;;;;19.17;53.29;101035.80;153974;1101;103243;-74
2021/06/04 05:12:26;;;;;;;11.30;6.23;;;;;;;19.32;53.20;101041.18;153976;1101;103181;-73
2021/06/04 05:15:33;;;;;;;9.80;6.00;;;;;;;19.45;52.94;101040.46;153966;1093;103246;-72
2021/06/04 05:18:37;;;;;;;7.57;6.20;;;;;;;19.54;52.75;101041.19;153931;1093;103227;-74
2021/06/04 05:21:41;;;;;;;8.37;5.33;;;;;;;19.66;52.64;101034.22;154007;1102;103148;-77
2021/06/04 05:24:45;;;;;;;8.00;5.70;;;;;;;19.79;52.71;101031.66;153975;1101;103592;-76
2021/06/04 05:27:50;;;;;;;8.35;5.80;;;;;;;19.94;52.64;101036.17;153922;1093;103292;-77
2021/06/04 05:30:58;;;;;;;7.70;5.20;;;;;;;20.05;52.33;101040.20;154033;1101;103116;-73
2021/06/04 05:34:01;;;;;;;9.30;5.80;;;;;;;20.16;52.06;101037.79;153968;1093;103195;-72
2021/06/04 05:37:06;;;;;;;7.63;5.05;;;;;;;20.26;51.92;101042.86;153924;1101;103487;-74
2021/06/04 05:40:15;;;;;;;6.23;5.27;;;;;;;20.36;51.60;101042.51;153959;1093;103128;-75
2021/06/04 05:43:22;;;;;;;8.13;5.40;;;;;;;20.43;51.93;101042.56;153938;1093;103217;-77
2021/06/04 05:46:26;;;;;;;7.80;5.30;;;;;;;20.49;51.42;101037.17;153953;1093;103199;-73
2021/06/04 05:49:30;;;;;;;6.75;5.23;;;;;;;20.56;51.40;101043.48;153917;1093;103144;-73
2021/06/04 05:52:34;;;;;;;8.07;4.70;;;;;;;20.65;51.09;101046.05;153939;1094;103110;-75
2021/06/04 05:55:39;;;;;;;6.75;5.18;;;;;;;20.68;50.45;101046.49;153972;1101;103262;-76
2021/06/04 05:58:44;;;;;;;5.90;5.05;;;;;;;20.70;50.20;101044.41;153996;1093;103260;-74
2021/06/04 06:01:49;;;;;;;8.20;4.73;;;;;;;20.75;50.27;101052.80;154022;1093;103111;-74
2021/06/04 06:04:52;;;;;;;9.27;6.03;;;;;;;20.82;49.76;101055.53;153975;1101;103179;-78
2021/06/04 06:07:56;;;;;;;8.90;6.20;;;;;;;20.85;49.77;101052.42;153952;1093;103173;-77
2021/06/04 06:11:01;;;;;;;11.58;8.05;;;;;;;20.91;48.99;101051.61;154019;1101;103199;-77
2021/06/04 06:14:07;;;;;;;9.18;5.68;;;;;;;20.94;49.17;101061.25;154013;1093;103305;-76
2021/06/04 06:17:12;;;;;;;7.63;4.88;;;;;;;20.96;48.82;101059.16;154121;1101;103132;-75
2021/06/04 06:20:18;;;;;;;8.13;4.80;;;;;;;20.92;48.45;101061.44;154202;1101;103200;-75
2021/06/04 06:23:26;;;;;;;7.05;5.00;;;;;;;20.93;48.41;101060.38;154058;1101;103582;-80
2021/06/04 06:26:31;;;;;;;9.07;4.80;;;;;;;20.96;48.59;101059.99;154126;1093;103573;-78
2021/06/04 06:29:36;;;;;;;7.67;5.00;;;;;;;20.99;48.16;101065.00;154004;1101;103496;-80
2021/06/04 06:32:40;;;;;;;8.55;5.80;;;;;;;21.03;48.02;101059.17;154082;1101;103126;-76
2021/06/04 06:35:46;;;;;;;6.43;4.13;;;;;;;21.04;47.51;101061.70;154055;1093;103193;-74
2021/06/04 06:38:50;;;;;;;7.13;3.98;;;;;;;21.05;47.15;101063.35;154002;1101;103125;-74
2021/06/04 06:41:55;;;;;;;5.88;3.93;;;;;;;21.09;47.03;101064.62;153973;1101;103136;-74
2021/06/04 06:44:59;;;;;;;6.07;4.23;;;;;;;21.11;46.46;101073.42;154095;1094;103251;-81
2021/06/04 06:48:02;;;;;;;6.60;4.15;;;;;;;21.10;45.76;101069.02;153959;1101;103519;-72
2021/06/04 06:51:09;;;;;;;4.18;3.60;;;;;;;21.11;46.72;101067.99;153995;1101;103146;-72
2021/06/04 06:54:16;;;;;;;7.10;4.03;;;;;;;21.16;46.35;101064.66;153967;1101;103224;-72
2021/06/04 06:57:20;;;;;;;6.67;3.80;;;;;;;21.20;45.98;101070.52;154258;1101;103129;-75
2021/06/04 07:00:28;;;;;;;4.75;2.93;;;;;;;21.22;45.76;101071.16;154007;1096;103276;-73
2021/06/04 07:03:34;;;;;;;4.93;3.60;;;;;;;21.26;45.45;101070.53;154055;1096;103263;-74
2021/06/04 07:06:40;;;;;;;4.07;3.20;;;;;;;21.30;45.35;101077.22;154198;1101;103190;-71
2021/06/04 07:09:43;;;;;;;7.10;3.57;;;;;;;21.36;45.39;101070.14;154031;1101;103192;-72
2021/06/04 07:12:47;;;;;;;5.95;3.73;;;;;;;21.40;43.84;101071.40;153982;1101;103246;-73
2021/06/04 07:15:51;;;;;;;4.70;3.45;;;;;;;21.42;43.84;101071.20;153940;1101;103181;-70
2021/06/04 07:18:54;;;;;;;4.85;3.18;;;;;;;21.47;44.17;101083.16;153921;1101;103125;-74
2021/06/04 07:21:58;;;;;;;5.75;3.23;;;;;;;21.54;44.52;101073.16;154055;1101;103192;-75
2021/06/04 07:25:03;;;;;;;3.90;3.28;;;;;;;21.60;44.54;101071.50;153930;1096;103122;-74
2021/06/04 07:28:08;;;;;;;3.85;2.80;;;;;;;21.69;44.26;101077.55;154089;1101;103110;-72
2021/06/04 07:31:15;;;;;;;7.38;2.85;;;;;;;21.78;44.06;101070.06;154046;1101;103196;-73
2021/06/04 07:34:20;;;;;;;2.90;2.58;;;;;;;21.82;43.81;101071.31;153918;1093;103213;-77
2021/06/04 07:37:23;;;;;;;5.98;2.58;;;;;;;21.86;43.34;101070.68;154083;1101;103125;-72
2021/06/04 07:40:32;;;;;;;7.27;3.40;;;;;;;21.91;43.31;101070.08;153991;1093;103128;-71
2021/06/04 07:43:39;;;;;;;3.67;2.73;;;;;;;21.96;43.28;101071.13;154050;1094;103120;-72
2021/06/04 07:46:44;;;;;;;3.23;2.80;;;;;;;22.04;42.52;101074.69;153999;1093;103193;-71
2021/06/04 07:49:48;;;;;;;4.83;2.60;;;;;;;22.07;42.48;101066.09;153899;1093;103192;-72
2021/06/04 07:52:51;;;;;;;3.23;2.90;;;;;;;22.10;42.08;101060.26;154087;1101;103100;-70
2021/06/04 07:55:56;;;;;;;2.60;2.40;;;;;;;22.15;42.31;101063.16;153970;1101;103196;-76
2021/06/04 07:59:00;;;;;;;4.03;2.83;;;;;;;22.23;41.90;101060.25;153964;1101;103523;-70
2021/06/04 08:02:05;;;;;;;4.98;2.63;;;;;;;22.31;41.56;101049.19;153798;1101;103547;-70
2021/06/04 08:05:11;;;;;;;2.87;2.37;;;;;;;22.35;41.15;101063.19;153868;1101;103139;-69
2021/06/04 08:08:16;;;;;;;4.10;2.10;;;;;;;22.43;41.32;101059.42;154003;1095;103218;-69
2021/06/04 08:11:23;;;;;;;2.50;2.00;;;;;;;22.56;41.09;101059.39;153871;1096;103190;-69
2021/06/04 08:14:28;;;;;;;2.40;1.95;;;;;;;22.67;40.98;101053.30;153745;1093;103110;-73
2021/06/04 08:17:31;;;;;;;2.77;2.00;;;;;;;22.67;40.45;101049.72;154023;1095;103243;-69
2021/06/04 08:20:38;;;;;;;2.73;2.40;;;;;;;22.57;40.63;101052.06;153829;1097;103201;-72
2021/06/04 08:23:44;;;;;;;2.98;2.25;;;;;;;22.50;40.78;101052.09;154009;1093;103128;-74
2021/06/04 08:26:49;;;;;;;3.53;2.10;;;;;;;22.60;40.44;101052.47;154019;1094;103122;-74
2021/06/04 08:29:54;;;;;;;3.93;2.58;;;;;;;22.77;40.33;101055.57;154066;1096;103200;-70
2021/06/04 08:32:59;;;;;;;4.25;2.78;;;;;;;22.80;40.63;101057.84;153912;1101;103267;-70
2021/06/04 08:36:03;;;;;;;4.08;2.75;;;;;;;22.79;39.01;101048.02;153861;1097;103193;-75
2021/06/04 08:39:10;;;;;;;4.35;2.70;;;;;;;22.85;39.66;101054.50;153982;1101;103130;-74
2021/06/04 08:42:39;;;;;;;4.07;2.37;;;;;;;22.83;39.81;101056.60;153782;1101;103114;-70
2021/06/04 08:45:51;;;;;;;2.70;2.40;;;;;;;22.89;39.69;101053.84;153859;1101;103122;-71
2021/06/04 08:49:02;;;;;;;3.30;2.53;;;;;;;22.92;39.08;101050.70;153767;1093;103264;-79
2021/06/04 08:52:18;;;;;;;;;;;;;;;22.86;38.75;101051.53;153832;1101;103122;-70
2021/06/04 08:55:34;;;;;;;3.70;2.27;;;;;;;22.87;38.85;101047.78;153904;1101;103125;-68
2021/06/04 08:58:59;;;;;;;3.90;3.03;;;;;;;22.88;38.97;101041.30;153835;1101;103120;-70
2021/06/04 09:02:08;;;;;;;5.10;3.20;;;;;;;22.87;38.62;101042.34;153855;1093;103123;-85
2021/06/04 09:05:16;;;;;;;4.88;3.20;;;;;;;22.86;38.64;101037.93;154137;1101;103193;-67
2021/06/04 09:08:25;;;;;;;5.20;2.65;;;;;;;22.90;38.62;101031.03;153922;1101;103190;-69
2021/06/04 09:11:33;;;;;;;2.85;2.55;;;;;;;22.97;37.92;101027.44;153831;1101;103560;-69
2021/06/04 09:14:37;;;;;;;2.90;2.50;;;;;;;23.08;38.47;101035.79;153827;1101;103467;-83
2021/06/04 09:17:47;;;;;;;3.10;2.30;;;;;;;23.31;38.22;101023.53;154045;1101;103144;-70
2021/06/04 09:20:57;;;;;;;4.03;2.58;;;;;;;23.56;38.10;101034.47;153932;1093;103327;-68
2021/06/04 09:24:07;;;;;;;4.00;2.10;;;;;;;23.75;38.07;101031.80;153827;1101;103604;-68
2021/06/04 09:27:30;;;;;;;4.63;2.23;;;;;;;23.97;37.86;101033.13;153793;1101;103128;-70
2021/06/04 09:30:37;;;;;;;2.78;2.25;;;;;;;24.14;37.62;101027.13;153815;1101;103130;-70
2021/06/04 09:33:48;;;;;;;4.23;2.33;;;;;;;24.25;37.60;101024.48;153908;1095;103125;-70
2021/06/04 09:36:54;;;;;;;4.98;2.10;;;;;;;24.40;37.48;101020.55;153838;1093;103160;-70
2021/06/04 09:40:16;;;;;;;3.50;2.40;;;;;;;24.55;37.28;101025.67;153878;1093;103240;-70
2021/06/04 09:43:30;;;;;;;4.80;2.40;;;;;;;24.69;37.20;101019.84;153774;1101;103130;-71
2021/06/04 09:46:39;;;;;;;4.98;2.13;;;;;;;24.85;36.40;101018.38;153802;1093;103120;-70
2021/06/04 09:49:50;;;;;;;4.35;2.20;;;;;;;24.96;36.90;101015.93;153887;1095;103218;-70
2021/06/04 09:53:02;;;;;;;;;;;;;;;25.18;36.39;101006.19;153886;1101;103200;-69
2021/06/04 09:56:28;;;;;;;4.30;2.60;;;;;;;25.38;36.87;101007.82;153891;1101;103130;-75
2021/06/04 09:59:32;;;;;;;2.60;2.40;;;;;;;25.67;36.31;101011.56;154015;1097;103100;-70
2021/06/04 10:02:38;;;;;;;3.18;2.23;;;;;;;25.94;35.08;101000.22;153862;1093;103196;-70
2021/06/04 10:05:44;;;;;;;5.38;2.30;;;;;;;26.10;35.94;101002.25;154021;1096;103089;-70
2021/06/04 10:08:50;;;;;;;4.05;2.40;;;;;;;26.26;35.68;101000.70;153829;1101;103258;-71
2021/06/04 10:11:59;;;;;;;2.60;2.40;;;;;;;26.37;35.57;101007.23;153921;1101;103196;-69
2021/06/04 10:15:15;;;;;;;3.03;2.20;;;;;;;26.48;34.51;101006.36;153843;1101;103138;-70
2021/06/04 10:18:33;;;;;;;3.65;2.40;;;;;;;26.47;35.42;101010.19;153826;1101;103240;-70
2021/06/04 10:21:37;;;;;;;2.80;2.23;;;;;;;26.36;35.17;101005.56;153853;1101;103244;-70
2021/06/04 10:24:43;;;;;;;5.83;2.13;;;;;;;26.24;34.95;101003.66;153806;1093;103250;-71
2021/06/04 10:27:51;;;;;;;2.77;2.50;;;;;;;26.10;35.00;101001.41;153868;1097;103130;-71
2021/06/04 10:30:57;;;;;;;2.60;2.23;;;;;;;26.12;35.28;101002.03;153960;1101;103200;-70
2021/06/04 10:34:13;;;;;;;3.20;2.37;;;;;;;26.24;35.29;101003.66;153826;1101;103110;-69
2021/06/04 10:37:22;;;;;;;3.00;2.38;;;;;;;26.39;34.72;100994.15;153836;1101;103296;-70
2021/06/04 10:40:31;;;;;;;3.40;2.50;;;;;;;26.51;35.03;100997.69;153772;1093;103231;-74
2021/06/04 10:43:56;;;;;;;4.23;2.50;;;;;;;26.62;34.97;100999.59;154166;1101;103202;-70
2021/06/04 10:47:09;;;;;;;2.83;2.50;;;;;;;26.75;34.64;100997.65;153884;1101;103309;-68
2021/06/04 10:50:19;;;;;;;4.23;2.30;;;;;;;26.78;33.80;100991.70;153888;1101;103192;-69
2021/06/04 10:53:27;;;;;;;;;;;;;;;26.70;34.04;100989.35;153948;1093;103191;-71
2021/06/04 10:56:37;;;;;;;2.80;2.40;;;;;;;26.67;34.34;100985.17;153958;1101;103563;-69
2021/06/04 10:59:48;;;;;;;5.00;2.20;;;;;;;26.69;34.37;100988.50;153897;1101;103512;-69
2021/06/04 11:03:07;;;;;;;3.38;2.30;;;;;;;26.90;34.42;100981.52;153895;1093;103129;-69
2021/06/04 11:06:18;;;;;;;5.03;2.55;;;;;;;26.96;34.28;100977.80;153872;1101;103125;-68
2021/06/04 11:09:31;;;;;;;3.80;2.40;;;;;;;27.12;34.11;100983.56;153938;1101;103108;-69
2021/06/04 11:13:04;;;;;;;2.57;2.30;;;;;;;27.18;32.91;100985.34;153835;1101;103299;-69
2021/06/04 11:16:16;;;;;;;2.60;2.05;;;;;;;27.02;33.22;100971.37;153846;1101;103203;-69
2021/06/04 11:19:41;;;;;;;4.53;2.50;;;;;;;27.08;33.33;100968.70;153802;1101;103227;-69
2021/06/04 11:22:55;;;;;;;4.93;2.55;;;;;;;27.05;32.94;100966.47;153782;1101;103399;-70
2021/06/04 11:26:02;;;;;;;4.17;2.30;;;;;;;26.93;33.11;100964.61;153849;1101;103120;-69
2021/06/04 11:29:09;;;;;;;2.15;1.95;;;;;;;27.00;32.68;100961.71;153805;1096;103267;-69
2021/06/04 11:32:18;;;;;;;3.70;2.50;;;;;;;27.08;32.52;100949.53;153913;1101;103196;-69
2021/06/04 11:35:26;;;;;;;4.50;2.20;;;;;;;26.99;32.68;100947.20;153797;1101;103133;-69
2021/06/04 11:38:37;;;;;;;2.87;2.60;;;;;;;26.94;32.21;100947.09;153818;1095;103139;-69
2021/06/04 11:41:47;;;;;;;2.83;2.23;;;;;;;26.84;32.16;100946.91;153838;1095;103129;-69
2021/06/04 11:44:55;;;;;;;2.38;2.10;;;;;;;26.72;32.27;100946.95;153851;1097;103210;-69
2021/06/04 11:48:39;;;;;;;2.40;2.20;;;;;;;26.61;32.25;100940.44;153843;1096;103119;-69
2021/06/04 11:51:51;;;;;;;5.30;2.48;;;;;;;26.42;30.64;100933.45;153882;1096;103653;-69
2021/06/04 11:55:11;;;;;;;2.73;2.10;;;;;;;26.18;31.91;100936.23;153859;1097;103161;-69
2021/06/04 11:58:47;;;;;;;3.20;2.15;;;;;;;26.01;32.04;100927.11;153873;1101;103144;-69
2021/06/04 12:02:03;;;;;;;4.18;2.38;;;;;;;25.81;32.02;100925.55;153851;1095;103260;-69
2021/06/04 12:05:27;;;;;;;3.80;2.40;;;;;;;25.63;32.17;100925.65;153925;1101;103100;-69
2021/06/04 12:08:39;;;;;;;3.68;2.65;;;;;;;25.39;32.35;100920.16;153842;1101;103218;-69
2021/06/04 12:11:42;;;;;;;2.93;2.63;;;;;;;25.17;32.12;100924.48;153889;1096;103197;-69
2021/06/04 12:15:24;;;;;;;5.47;3.27;;;;;;;24.98;32.14;100927.29;153895;1097;103206;-69
2021/06/04 12:18:54;;;;;;;3.45;2.48;;;;;;;24.77;32.36;100912.26;153745;1101;103736;-69
2021/06/04 12:22:09;;;;;;;3.23;2.87;;;;;;;24.74;32.66;100917.34;153873;1097;103119;-70
2021/06/04 12:25:14;;;;;;;2.90;2.60;;;;;;;24.86;32.21;100916.30;153742;1096;103128;-69
2021/06/04 12:28:37;;;;;;;3.27;2.43;;;;;;;25.04;31.99;100920.89;153793;1096;103582;-69
2021/06/04 12:31:53;;;;;;;2.43;2.20;;;;;;;25.14;31.93;100911.31;153964;1096;103154;-70
2021/06/04 12:35:00;;;;;;;2.90;2.60;;;;;;;25.28;31.92;100907.31;153958;1096;103232;-70
2021/06/04 12:38:25;;;;;;;3.40;2.80;;;;;;;25.34;32.38;100906.38;153922;1094;103586;-70
2021/06/04 12:41:29;;;;;;;7.18;4.88;;;;;;;25.51;32.37;100902.95;153877;1095;103181;-69
2021/06/04 12:44:33;;;;;;;6.37;4.73;;;;;;;25.61;32.51;100901.28;153816;1101;103127;-76
2021/06/04 12:47:45;;;;;;;6.03;3.60;;;;;;;25.52;31.76;100901.88;153937;1096;103198;-70
2021/06/04 12:51:03;;;;;;;4.23;3.10;;;;;;;25.41;31.96;100901.64;153866;1097;103568;-69
2021/06/04 12:54:09;;;;;;;3.93;2.60;;;;;;;25.34;32.59;100897.35;153802;1096;103158;-70
2021/06/04 12:57:25;;;;;;;3.83;3.00;;;;;;;25.31;32.19;100895.08;153861;1101;103226;-70
2021/06/04 13:00:31;;;;;;;3.45;2.30;;;;;;;25.19;31.56;100892.30;153803;1096;103173;-70
2021/06/04 13:03:38;;;;;;;3.37;2.37;;;;;;;25.07;31.20;100895.01;153910;1101;103197;-69
2021/06/04 13:06:47;;;;;;;3.37;2.10;;;;;;;25.01;31.14;100883.13;154120;1096;103292;-69
2021/06/04 13:10:09;;;;;;;5.93;2.30;;;;;;;24.97;30.20;100884.66;153847;1093;103124;-72
2021/06/04 13:13:16;;;;;;;3.00;2.40;;;;;;;25.09;30.89;100876.49;153987;1101;103178;-73
2021/06/04 13:16:23;;;;;;;2.58;2.20;;;;;;;25.14;31.70;100881.27;153935;1101;103133;-73
2021/06/04 13:19:32;;;;;;;4.03;2.40;;;;;;;25.17;31.13;100867.95;154103;1096;103113;-73
2021/06/04 13:22:37;;;;;;;4.30;2.33;;;;;;;25.23;31.20;100877.98;154021;1093;103273;-71
2021/06/04 13:25:44;;;;;;;2.77;2.30;;;;;;;25.22;30.83;100876.31;154097;1101;103233;-73
2021/06/04 13:28:51;;;;;;;3.25;2.03;;;;;;;25.20;30.82;100867.48;154003;1095;103195;-73
2021/06/04 13:31:58;;;;;;;3.65;2.15;;;;;;;25.23;30.56;100868.94;153983;1101;103276;-72
2021/06/04 13:35:08;;;;;;;2.93;1.90;;;;;;;25.27;30.82;100861.97;153972;1101;103211;-73
2021/06/04 13:38:19;;;;;;;2.43;2.00;;;;;;;25.34;30.98;100865.39;153982;1101;103132;-73
2021/06/04 13:41:25;;;;;;;;;;;;;;;25.43;30.88;100865.89;154070;1095;103198;-72
2021/06/04 13:44:33;;;;;;;2.20;2.00;;;;;;;25.45;31.03;100864.58;154018;1095;103196;-73
2021/06/04 13:47:42;;;;;;;3.67;2.60;;;;;;;25.50;30.47;100863.03;154002;1096;103196;-72
2021/06/04 13:50:57;;;;;;;11.08;3.23;;;;;;;25.61;31.07;100871.22;153987;1094;103155;-73
2021/06/04 13:54:02;;;;;;;2.75;2.30;;;;;;;25.78;30.77;100873.25;153947;1101;103296;-73
2021/06/04 13:57:21;;;;;;;3.50;2.60;;;;;;;25.94;31.01;100866.23;153982;1101;103563;-73
2021/06/04 14:00:29;;;;;;;4.98;2.28;;;;;;;26.07;30.50;100860.51;153942;1101;103147;-71
2021/06/04 14:03:35;;;;;;;4.65;3.63;;;;;;;26.15;30.45;100860.13;153983;1101;103131;-73
2021/06/04 14:06:50;;;;;;;3.03;2.43;;;;;;;26.24;30.36;100866.88;154026;1094;103486;-72
2021/06/04 14:10:13;;;;;;;2.80;2.17;;;;;;;26.34;30.38;100859.95;153931;1101;103554;-73
2021/06/04 14:13:19;;;;;;;3.53;2.23;;;;;;;26.45;30.36;100861.83;154008;1097;103196;-75
2021/06/04 14:16:39;;;;;;;2.30;2.00;;;;;;;26.54;30.27;100852.16;153982;1101;103151;-73
2021/06/04 14:19:52;;;;;;;2.20;2.03;;;;;;;26.55;30.11;100851.06;153959;1096;103248;-72